sensor_id;sensor_type;location;lat;lon;timestamp;P1;durP1;ratioP1;P2;durP2;ratioP2
47539;SDS011;33280;52.152;21.052;2023-08-20T00:00:15;26.43;;;20.90;;
47539;SDS011;33280;52.152;21.052;2023-08-20T00:02:43;26.33;;;21.43;;
47539;SDS011;33280;52.152;21.052;2023-08-20T00:05:22;26.50;;;21.90;;
47539;SDS011;33280;52.152;21.052;2023-08-20T00:30:56;28.17;;;22.13;;
47539;SDS011;33280;52.152;21.052;2023-08-20T00:33:27;29.20;;;22.03;;
47539;SDS011;33280;52.152;21.052;2023-08-20T00:36:02;27.80;;;23.13;;
47539;SDS011;33280;52.152;21.052;2023-08-20T00:38:32;30.07;;;23.13;;
47539;SDS011;33280;52.152;21.052;2023-08-20T00:41:07;27.17;;;23.00;;
47539;SDS011;33280;52.152;21.052;2023-08-20T00:43:44;30.40;;;22.73;;
47539;SDS011;33280;52.152;21.052;2023-08-20T00:46:20;27.80;;;22.63;;
47539;SDS011;33280;52.152;21.052;2023-08-20T00:49:01;31.10;;;22.50;;
47539;SDS011;33280;52.152;21.052;2023-08-20T00:51:40;26.87;;;22.40;;
47539;SDS011;33280;52.152;21.052;2023-08-20T00:54:11;30.87;;;23.10;;
47539;SDS011;33280;52.152;21.052;2023-08-20T00:56:48;26.50;;;21.43;;
47539;SDS011;33280;52.152;21.052;2023-08-20T00:59:22;28.37;;;22.43;;
47539;SDS011;33280;52.152;21.052;2023-08-20T01:02:06;28.97;;;23.37;;
47539;SDS011;33280;52.152;21.052;2023-08-20T01:04:36;29.43;;;22.93;;
47539;SDS011;33280;52.152;21.052;2023-08-20T01:12:28;28.70;;;22.43;;
47539;SDS011;33280;52.152;21.052;2023-08-20T01:15:07;30.33;;;24.07;;
47539;SDS011;33280;52.152;21.052;2023-08-20T01:17:44;30.27;;;22.77;;
47539;SDS011;33280;52.152;21.052;2023-08-20T01:20:19;30.10;;;23.90;;
47539;SDS011;33280;52.152;21.052;2023-08-20T01:22:59;27.17;;;23.23;;
47539;SDS011;33280;52.152;21.052;2023-08-20T01:28:43;30.00;;;24.33;;
47539;SDS011;33280;52.152;21.052;2023-08-20T01:31:11;29.73;;;23.50;;
47539;SDS011;33280;52.152;21.052;2023-08-20T01:33:39;26.67;;;22.53;;
47539;SDS011;33280;52.152;21.052;2023-08-20T01:36:10;28.67;;;23.33;;
47539;SDS011;33280;52.152;21.052;2023-08-20T01:38:41;28.37;;;23.10;;
47539;SDS011;33280;52.152;21.052;2023-08-20T01:41:13;27.80;;;23.60;;
47539;SDS011;33280;52.152;21.052;2023-08-20T01:43:42;28.17;;;22.80;;
47539;SDS011;33280;52.152;21.052;2023-08-20T01:46:23;28.53;;;23.57;;
47539;SDS011;33280;52.152;21.052;2023-08-20T01:49:02;27.63;;;21.97;;
47539;SDS011;33280;52.152;21.052;2023-08-20T01:51:36;27.90;;;22.63;;
47539;SDS011;33280;52.152;21.052;2023-08-20T01:54:06;30.33;;;23.23;;
47539;SDS011;33280;52.152;21.052;2023-08-20T01:56:56;31.53;;;21.83;;
47539;SDS011;33280;52.152;21.052;2023-08-20T01:59:25;27.93;;;22.73;;
47539;SDS011;33280;52.152;21.052;2023-08-20T02:01:58;28.80;;;23.33;;
47539;SDS011;33280;52.152;21.052;2023-08-20T02:04:32;28.93;;;23.23;;
47539;SDS011;33280;52.152;21.052;2023-08-20T02:07:03;27.47;;;23.40;;
47539;SDS011;33280;52.152;21.052;2023-08-20T02:09:34;30.17;;;22.60;;
47539;SDS011;33280;52.152;21.052;2023-08-20T02:12:22;26.03;;;21.80;;
47539;SDS011;33280;52.152;21.052;2023-08-20T02:14:54;27.80;;;21.97;;
47539;SDS011;33280;52.152;21.052;2023-08-20T02:17:22;26.83;;;21.63;;
47539;SDS011;33280;52.152;21.052;2023-08-20T02:20:10;27.60;;;21.73;;
47539;SDS011;33280;52.152;21.052;2023-08-20T02:22:46;27.20;;;21.53;;
47539;SDS011;33280;52.152;21.052;2023-08-20T02:25:32;26.37;;;21.03;;
47539;SDS011;33280;52.152;21.052;2023-08-20T02:28:06;27.17;;;22.13;;
47539;SDS011;33280;52.152;21.052;2023-08-20T02:30:50;29.90;;;22.33;;
47539;SDS011;33280;52.152;21.052;2023-08-20T02:33:23;27.20;;;21.37;;
47539;SDS011;33280;52.152;21.052;2023-08-20T02:35:53;27.17;;;21.63;;
47539;SDS011;33280;52.152;21.052;2023-08-20T02:38:25;28.00;;;22.03;;
47539;SDS011;33280;52.152;21.052;2023-08-20T02:40:55;27.40;;;22.20;;
47539;SDS011;33280;52.152;21.052;2023-08-20T02:43:38;24.50;;;20.83;;
47539;SDS011;33280;52.152;21.052;2023-08-20T02:46:15;25.90;;;21.43;;
47539;SDS011;33280;52.152;21.052;2023-08-20T02:48:51;24.97;;;21.13;;
47539;SDS011;33280;52.152;21.052;2023-08-20T02:51:23;27.87;;;22.53;;
47539;SDS011;33280;52.152;21.052;2023-08-20T02:53:55;28.63;;;22.20;;
47539;SDS011;33280;52.152;21.052;2023-08-20T02:56:26;27.10;;;22.13;;
47539;SDS011;33280;52.152;21.052;2023-08-20T02:58:58;28.77;;;22.20;;
47539;SDS011;33280;52.152;21.052;2023-08-20T03:01:30;29.73;;;23.77;;
47539;SDS011;33280;52.152;21.052;2023-08-20T03:04:01;28.90;;;22.60;;
47539;SDS011;33280;52.152;21.052;2023-08-20T03:06:41;28.80;;;23.63;;
47539;SDS011;33280;52.152;21.052;2023-08-20T03:09:12;29.40;;;23.07;;
47539;SDS011;33280;52.152;21.052;2023-08-20T03:11:44;28.80;;;22.00;;
47539;SDS011;33280;52.152;21.052;2023-08-20T03:14:13;29.97;;;23.80;;
47539;SDS011;33280;52.152;21.052;2023-08-20T03:16:51;28.93;;;23.67;;
47539;SDS011;33280;52.152;21.052;2023-08-20T03:19:34;31.40;;;23.97;;
47539;SDS011;33280;52.152;21.052;2023-08-20T03:22:27;28.23;;;23.00;;
47539;SDS011;33280;52.152;21.052;2023-08-20T03:25:14;29.33;;;23.53;;
47539;SDS011;33280;52.152;21.052;2023-08-20T03:27:51;30.73;;;24.20;;
47539;SDS011;33280;52.152;21.052;2023-08-20T03:30:28;29.00;;;23.83;;
47539;SDS011;33280;52.152;21.052;2023-08-20T03:33:03;30.57;;;23.67;;
47539;SDS011;33280;52.152;21.052;2023-08-20T03:35:40;30.23;;;23.37;;
47539;SDS011;33280;52.152;21.052;2023-08-20T03:38:25;32.97;;;25.80;;
47539;SDS011;33280;52.152;21.052;2023-08-20T03:41:12;31.23;;;24.30;;
47539;SDS011;33280;52.152;21.052;2023-08-20T03:43:49;36.83;;;25.40;;
47539;SDS011;33280;52.152;21.052;2023-08-20T03:46:37;31.17;;;25.10;;
47539;SDS011;33280;52.152;21.052;2023-08-20T03:49:07;31.80;;;24.83;;
47539;SDS011;33280;52.152;21.052;2023-08-20T03:51:44;33.03;;;25.97;;
47539;SDS011;33280;52.152;21.052;2023-08-20T03:54:15;31.17;;;24.23;;
47539;SDS011;33280;52.152;21.052;2023-08-20T03:56:44;32.33;;;25.67;;
47539;SDS011;33280;52.152;21.052;2023-08-20T03:59:20;34.00;;;25.73;;
47539;SDS011;33280;52.152;21.052;2023-08-20T04:01:58;30.03;;;24.00;;
47539;SDS011;33280;52.152;21.052;2023-08-20T04:04:32;29.23;;;24.17;;
47539;SDS011;33280;52.152;21.052;2023-08-20T04:07:08;29.10;;;23.97;;
47539;SDS011;33280;52.152;21.052;2023-08-20T04:09:36;31.30;;;24.47;;
47539;SDS011;33280;52.152;21.052;2023-08-20T04:12:10;31.57;;;25.63;;
47539;SDS011;33280;52.152;21.052;2023-08-20T04:14:43;31.27;;;24.30;;
47539;SDS011;33280;52.152;21.052;2023-08-20T04:17:15;29.50;;;24.20;;
47539;SDS011;33280;52.152;21.052;2023-08-20T04:19:51;29.43;;;23.67;;
47539;SDS011;33280;52.152;21.052;2023-08-20T04:22:21;32.37;;;25.20;;
47539;SDS011;33280;52.152;21.052;2023-08-20T04:24:53;31.77;;;25.07;;
47539;SDS011;33280;52.152;21.052;2023-08-20T04:27:22;31.27;;;24.13;;
47539;SDS011;33280;52.152;21.052;2023-08-20T04:30:08;34.03;;;24.83;;
47539;SDS011;33280;52.152;21.052;2023-08-20T04:32:47;34.93;;;25.43;;
47539;SDS011;33280;52.152;21.052;2023-08-20T04:35:15;30.33;;;24.00;;
47539;SDS011;33280;52.152;21.052;2023-08-20T04:37:50;32.53;;;25.10;;
47539;SDS011;33280;52.152;21.052;2023-08-20T04:40:24;33.23;;;25.27;;
47539;SDS011;33280;52.152;21.052;2023-08-20T04:42:54;30.57;;;24.47;;
47539;SDS011;33280;52.152;21.052;2023-08-20T04:45:27;32.17;;;26.17;;
47539;SDS011;33280;52.152;21.052;2023-08-20T04:48:17;30.90;;;25.00;;
47539;SDS011;33280;52.152;21.052;2023-08-20T04:50:52;28.97;;;23.90;;
47539;SDS011;33280;52.152;21.052;2023-08-20T04:53:34;32.50;;;24.27;;
47539;SDS011;33280;52.152;21.052;2023-08-20T04:56:14;29.23;;;22.80;;
47539;SDS011;33280;52.152;21.052;2023-08-20T04:58:41;29.50;;;23.67;;
47539;SDS011;33280;52.152;21.052;2023-08-20T05:01:13;33.20;;;24.57;;
47539;SDS011;33280;52.152;21.052;2023-08-20T05:03:43;30.57;;;23.87;;
47539;SDS011;33280;52.152;21.052;2023-08-20T05:06:13;31.60;;;25.03;;
47539;SDS011;33280;52.152;21.052;2023-08-20T05:08:41;29.40;;;24.30;;
47539;SDS011;33280;52.152;21.052;2023-08-20T05:11:11;30.13;;;24.20;;
47539;SDS011;33280;52.152;21.052;2023-08-20T05:13:46;28.73;;;23.97;;
47539;SDS011;33280;52.152;21.052;2023-08-20T05:16:27;29.00;;;23.37;;
47539;SDS011;33280;52.152;21.052;2023-08-20T05:19:21;30.40;;;23.60;;
47539;SDS011;33280;52.152;21.052;2023-08-20T05:21:52;30.30;;;24.03;;
47539;SDS011;33280;52.152;21.052;2023-08-20T05:24:35;31.50;;;24.47;;
47539;SDS011;33280;52.152;21.052;2023-08-20T05:27:12;33.53;;;25.47;;
47539;SDS011;33280;52.152;21.052;2023-08-20T05:29:48;29.20;;;23.43;;
47539;SDS011;33280;52.152;21.052;2023-08-20T05:32:16;36.40;;;24.90;;
47539;SDS011;33280;52.152;21.052;2023-08-20T05:34:54;30.70;;;24.03;;
47539;SDS011;33280;52.152;21.052;2023-08-20T05:37:35;30.70;;;23.50;;
47539;SDS011;33280;52.152;21.052;2023-08-20T05:40:06;27.60;;;22.53;;
47539;SDS011;33280;52.152;21.052;2023-08-20T05:42:53;29.50;;;23.83;;
47539;SDS011;33280;52.152;21.052;2023-08-20T05:45:32;28.90;;;24.37;;
47539;SDS011;33280;52.152;21.052;2023-08-20T05:47:59;32.53;;;25.50;;
47539;SDS011;33280;52.152;21.052;2023-08-20T05:50:31;28.93;;;23.07;;
47539;SDS011;33280;52.152;21.052;2023-08-20T05:53:02;28.20;;;23.33;;
47539;SDS011;33280;52.152;21.052;2023-08-20T05:55:38;31.00;;;23.23;;
47539;SDS011;33280;52.152;21.052;2023-08-20T05:58:15;31.33;;;23.27;;
47539;SDS011;33280;52.152;21.052;2023-08-20T06:00:57;26.97;;;21.90;;
47539;SDS011;33280;52.152;21.052;2023-08-20T06:03:42;29.13;;;23.10;;
47539;SDS011;33280;52.152;21.052;2023-08-20T06:06:10;28.15;;;22.88;;
47539;SDS011;33280;52.152;21.052;2023-08-20T06:09:08;28.13;;;22.73;;
47539;SDS011;33280;52.152;21.052;2023-08-20T06:11:43;27.10;;;22.03;;
47539;SDS011;33280;52.152;21.052;2023-08-20T06:14:20;26.25;;;21.58;;
47539;SDS011;33280;52.152;21.052;2023-08-20T06:16:59;24.73;;;20.90;;
47539;SDS011;33280;52.152;21.052;2023-08-20T06:19:31;26.42;;;22.45;;
47539;SDS011;33280;52.152;21.052;2023-08-20T06:22:13;26.42;;;21.00;;
47539;SDS011;33280;52.152;21.052;2023-08-20T06:24:45;24.13;;;20.17;;
47539;SDS011;33280;52.152;21.052;2023-08-20T06:27:17;23.88;;;19.95;;
47539;SDS011;33280;52.152;21.052;2023-08-20T06:41:59;23.02;;;18.98;;
47539;SDS011;33280;52.152;21.052;2023-08-20T06:44:40;21.45;;;18.42;;
47539;SDS011;33280;52.152;21.052;2023-08-20T06:47:13;21.83;;;18.55;;
47539;SDS011;33280;52.152;21.052;2023-08-20T06:50:01;22.60;;;18.52;;
47539;SDS011;33280;52.152;21.052;2023-08-20T06:52:42;22.45;;;17.90;;
47539;SDS011;33280;52.152;21.052;2023-08-20T06:55:25;22.52;;;18.40;;
47539;SDS011;33280;52.152;21.052;2023-08-20T06:58:00;20.92;;;18.55;;
47539;SDS011;33280;52.152;21.052;2023-08-20T07:00:45;19.92;;;16.80;;
47539;SDS011;33280;52.152;21.052;2023-08-20T07:03:16;17.75;;;15.88;;
47539;SDS011;33280;52.152;21.052;2023-08-20T07:05:59;22.48;;;17.00;;
47539;SDS011;33280;52.152;21.052;2023-08-20T07:08:37;20.45;;;17.25;;
47539;SDS011;33280;52.152;21.052;2023-08-20T07:11:11;19.13;;;17.10;;
47539;SDS011;33280;52.152;21.052;2023-08-20T07:13:40;20.15;;;17.80;;
47539;SDS011;33280;52.152;21.052;2023-08-20T07:16:23;21.35;;;17.38;;
47539;SDS011;33280;52.152;21.052;2023-08-20T07:18:58;19.58;;;17.17;;
47539;SDS011;33280;52.152;21.052;2023-08-20T07:21:39;19.38;;;16.90;;
47539;SDS011;33280;52.152;21.052;2023-08-20T07:24:10;19.52;;;16.88;;
47539;SDS011;33280;52.152;21.052;2023-08-20T07:26:43;18.95;;;16.02;;
47539;SDS011;33280;52.152;21.052;2023-08-20T07:29:38;18.55;;;16.05;;
47539;SDS011;33280;52.152;21.052;2023-08-20T07:32:11;17.90;;;15.68;;
47539;SDS011;33280;52.152;21.052;2023-08-20T07:34:40;18.73;;;16.02;;
47539;SDS011;33280;52.152;21.052;2023-08-20T07:37:24;17.98;;;15.73;;
47539;SDS011;33280;52.152;21.052;2023-08-20T07:40:28;19.60;;;15.57;;
47539;SDS011;33280;52.152;21.052;2023-08-20T07:43:09;17.52;;;14.73;;
47539;SDS011;33280;52.152;21.052;2023-08-20T07:45:37;17.67;;;15.77;;
47539;SDS011;33280;52.152;21.052;2023-08-20T07:48:18;19.38;;;14.77;;
47539;SDS011;33280;52.152;21.052;2023-08-20T07:50:49;17.33;;;15.10;;
47539;SDS011;33280;52.152;21.052;2023-08-20T07:53:28;16.58;;;14.02;;
47539;SDS011;33280;52.152;21.052;2023-08-20T07:56:00;16.65;;;14.23;;
47539;SDS011;33280;52.152;21.052;2023-08-20T07:58:39;19.15;;;14.90;;
47539;SDS011;33280;52.152;21.052;2023-08-20T08:01:15;18.63;;;14.38;;
47539;SDS011;33280;52.152;21.052;2023-08-20T08:03:56;15.95;;;14.30;;
47539;SDS011;33280;52.152;21.052;2023-08-20T08:06:29;16.38;;;14.55;;
47539;SDS011;33280;52.152;21.052;2023-08-20T08:09:19;15.35;;;13.75;;
47539;SDS011;33280;52.152;21.052;2023-08-20T08:12:17;14.70;;;13.20;;
47539;SDS011;33280;52.152;21.052;2023-08-20T08:15:01;13.73;;;12.23;;
47539;SDS011;33280;52.152;21.052;2023-08-20T08:17:32;15.15;;;13.23;;
47539;SDS011;33280;52.152;21.052;2023-08-20T08:20:03;15.25;;;12.50;;
47539;SDS011;33280;52.152;21.052;2023-08-20T08:22:36;13.77;;;11.75;;
47539;SDS011;33280;52.152;21.052;2023-08-20T08:25:08;15.85;;;12.80;;
47539;SDS011;33280;52.152;21.052;2023-08-20T08:27:50;13.07;;;11.77;;
47539;SDS011;33280;52.152;21.052;2023-08-20T08:30:32;14.88;;;11.93;;
47539;SDS011;33280;52.152;21.052;2023-08-20T08:33:09;12.90;;;11.60;;
47539;SDS011;33280;52.152;21.052;2023-08-20T08:35:52;12.77;;;11.45;;
47539;SDS011;33280;52.152;21.052;2023-08-20T08:38:23;11.88;;;10.68;;
47539;SDS011;33280;52.152;21.052;2023-08-20T08:40:58;13.32;;;11.10;;
47539;SDS011;33280;52.152;21.052;2023-08-20T08:43:42;13.13;;;10.65;;
47539;SDS011;33280;52.152;21.052;2023-08-20T08:46:28;13.13;;;10.65;;
47539;SDS011;33280;52.152;21.052;2023-08-20T08:49:05;21.33;;;11.90;;
47539;SDS011;33280;52.152;21.052;2023-08-20T08:51:37;12.23;;;11.00;;
47539;SDS011;33280;52.152;21.052;2023-08-20T08:54:08;18.08;;;11.73;;
47539;SDS011;33280;52.152;21.052;2023-08-20T08:56:53;13.38;;;10.68;;
47539;SDS011;33280;52.152;21.052;2023-08-20T08:59:20;13.38;;;11.02;;
47539;SDS011;33280;52.152;21.052;2023-08-20T09:01:50;11.88;;;10.45;;
47539;SDS011;33280;52.152;21.052;2023-08-20T09:04:20;16.25;;;10.57;;
47539;SDS011;33280;52.152;21.052;2023-08-20T09:07:10;15.75;;;11.43;;
47539;SDS011;33280;52.152;21.052;2023-08-20T09:09:45;14.00;;;11.60;;
47539;SDS011;33280;52.152;21.052;2023-08-20T09:12:20;16.02;;;11.18;;
47539;SDS011;33280;52.152;21.052;2023-08-20T09:15:09;15.00;;;11.13;;
47539;SDS011;33280;52.152;21.052;2023-08-20T09:17:52;12.00;;;10.68;;
47539;SDS011;33280;52.152;21.052;2023-08-20T09:20:43;13.55;;;11.27;;
47539;SDS011;33280;52.152;21.052;2023-08-20T09:23:16;13.00;;;11.23;;
47539;SDS011;33280;52.152;21.052;2023-08-20T09:26:07;11.27;;;10.02;;
47539;SDS011;33280;52.152;21.052;2023-08-20T09:28:46;14.38;;;11.45;;
47539;SDS011;33280;52.152;21.052;2023-08-20T09:31:17;13.45;;;11.15;;
47539;SDS011;33280;52.152;21.052;2023-08-20T09:33:53;12.23;;;10.95;;
47539;SDS011;33280;52.152;21.052;2023-08-20T09:36:33;11.25;;;10.05;;
47539;SDS011;33280;52.152;21.052;2023-08-20T09:39:13;10.75;;;9.65;;
47539;SDS011;33280;52.152;21.052;2023-08-20T09:41:47;11.00;;;9.90;;
47539;SDS011;33280;52.152;21.052;2023-08-20T09:44:29;13.82;;;10.88;;
47539;SDS011;33280;52.152;21.052;2023-08-20T09:47:05;11.10;;;9.90;;
47539;SDS011;33280;52.152;21.052;2023-08-20T09:49:46;11.40;;;10.30;;
47539;SDS011;33280;52.152;21.052;2023-08-20T09:52:25;10.52;;;9.52;;
47539;SDS011;33280;52.152;21.052;2023-08-20T09:55:00;10.20;;;9.20;;
47539;SDS011;33280;52.152;21.052;2023-08-20T09:57:40;10.88;;;9.88;;
47539;SDS011;33280;52.152;21.052;2023-08-20T10:00:12;11.20;;;9.98;;
47539;SDS011;33280;52.152;21.052;2023-08-20T10:02:51;10.35;;;9.30;;
47539;SDS011;33280;52.152;21.052;2023-08-20T10:06:42;10.90;;;9.43;;
47539;SDS011;33280;52.152;21.052;2023-08-20T10:09:40;10.23;;;8.85;;
47539;SDS011;33280;52.152;21.052;2023-08-20T10:12:40;10.05;;;8.88;;
47539;SDS011;33280;52.152;21.052;2023-08-20T10:16:06;10.00;;;8.85;;
47539;SDS011;33280;52.152;21.052;2023-08-20T10:22:07;9.80;;;8.50;;
47539;SDS011;33280;52.152;21.052;2023-08-20T10:24:41;10.45;;;9.30;;
47539;SDS011;33280;52.152;21.052;2023-08-20T10:27:31;10.18;;;8.75;;
47539;SDS011;33280;52.152;21.052;2023-08-20T10:30:10;11.75;;;8.82;;
47539;SDS011;33280;52.152;21.052;2023-08-20T10:33:03;11.30;;;8.90;;
47539;SDS011;33280;52.152;21.052;2023-08-20T10:46:35;9.93;;;8.95;;
47539;SDS011;33280;52.152;21.052;2023-08-20T10:58:52;9.82;;;8.73;;
47539;SDS011;33280;52.152;21.052;2023-08-20T11:16:45;9.80;;;8.80;;
47539;SDS011;33280;52.152;21.052;2023-08-20T11:19:55;10.05;;;8.93;;
47539;SDS011;33280;52.152;21.052;2023-08-20T11:59:32;9.82;;;8.57;;
47539;SDS011;33280;52.152;21.052;2023-08-20T12:02:25;9.93;;;8.80;;
47539;SDS011;33280;52.152;21.052;2023-08-20T12:05:06;9.88;;;8.88;;
47539;SDS011;33280;52.152;21.052;2023-08-20T12:07:38;11.18;;;9.00;;
47539;SDS011;33280;52.152;21.052;2023-08-20T12:10:22;9.77;;;8.73;;
47539;SDS011;33280;52.152;21.052;2023-08-20T12:13:13;10.07;;;9.07;;
47539;SDS011;33280;52.152;21.052;2023-08-20T12:16:08;10.30;;;9.30;;
47539;SDS011;33280;52.152;21.052;2023-08-20T12:18:36;10.90;;;9.45;;
47539;SDS011;33280;52.152;21.052;2023-08-20T12:21:07;9.45;;;8.60;;
47539;SDS011;33280;52.152;21.052;2023-08-20T12:23:49;10.07;;;9.13;;
47539;SDS011;33280;52.152;21.052;2023-08-20T12:26:31;10.07;;;9.13;;
47539;SDS011;33280;52.152;21.052;2023-08-20T12:29:12;9.95;;;8.95;;
47539;SDS011;33280;52.152;21.052;2023-08-20T12:31:41;9.93;;;9.02;;
47539;SDS011;33280;52.152;21.052;2023-08-20T12:34:16;10.32;;;9.32;;
47539;SDS011;33280;52.152;21.052;2023-08-20T12:36:55;10.82;;;9.73;;
47539;SDS011;33280;52.152;21.052;2023-08-20T12:39:27;11.02;;;9.93;;
47539;SDS011;33280;52.152;21.052;2023-08-20T12:42:03;11.00;;;9.65;;
47539;SDS011;33280;52.152;21.052;2023-08-20T12:44:50;11.38;;;10.27;;
47539;SDS011;33280;52.152;21.052;2023-08-20T12:47:29;12.18;;;10.13;;
47539;SDS011;33280;52.152;21.052;2023-08-20T12:50:04;11.45;;;10.07;;
47539;SDS011;33280;52.152;21.052;2023-08-20T12:52:38;11.10;;;10.00;;
47539;SDS011;33280;52.152;21.052;2023-08-20T14:55:10;12.35;;;11.05;;
47539;SDS011;33280;52.152;21.052;2023-08-20T15:47:41;10.63;;;9.55;;
47539;SDS011;33280;52.152;21.052;2023-08-20T15:51:40;11.95;;;10.52;;
47539;SDS011;33280;52.152;21.052;2023-08-20T16:19:17;13.10;;;10.50;;
47539;SDS011;33280;52.152;21.052;2023-08-20T16:21:55;13.25;;;10.45;;
47539;SDS011;33280;52.152;21.052;2023-08-20T16:24:33;11.40;;;9.70;;
47539;SDS011;33280;52.152;21.052;2023-08-20T16:53:25;10.23;;;9.13;;
47539;SDS011;33280;52.152;21.052;2023-08-20T17:09:17;11.93;;;10.13;;
47539;SDS011;33280;52.152;21.052;2023-08-20T17:16:27;13.05;;;10.32;;
47539;SDS011;33280;52.152;21.052;2023-08-20T17:19:17;11.55;;;9.85;;
47539;SDS011;33280;52.152;21.052;2023-08-20T17:21:53;10.43;;;9.25;;
47539;SDS011;33280;52.152;21.052;2023-08-20T17:24:35;10.80;;;9.60;;
47539;SDS011;33280;52.152;21.052;2023-08-20T17:27:09;11.82;;;9.48;;
47539;SDS011;33280;52.152;21.052;2023-08-20T17:29:55;12.10;;;9.68;;
47539;SDS011;33280;52.152;21.052;2023-08-20T17:36:42;11.93;;;10.18;;
47539;SDS011;33280;52.152;21.052;2023-08-20T17:39:50;11.57;;;10.13;;
47539;SDS011;33280;52.152;21.052;2023-08-20T17:42:28;13.07;;;10.15;;
47539;SDS011;33280;52.152;21.052;2023-08-20T17:48:59;12.75;;;9.98;;
47539;SDS011;33280;52.152;21.052;2023-08-20T17:58:48;11.65;;;10.27;;
47539;SDS011;33280;52.152;21.052;2023-08-20T18:01:46;13.27;;;10.25;;
47539;SDS011;33280;52.152;21.052;2023-08-20T18:05:09;12.93;;;9.77;;
47539;SDS011;33280;52.152;21.052;2023-08-20T18:07:55;11.43;;;10.15;;
47539;SDS011;33280;52.152;21.052;2023-08-20T18:10:32;13.88;;;10.85;;
47539;SDS011;33280;52.152;21.052;2023-08-20T18:13:33;15.90;;;11.00;;
47539;SDS011;33280;52.152;21.052;2023-08-20T18:16:03;12.00;;;10.70;;
47539;SDS011;33280;52.152;21.052;2023-08-20T19:15:47;14.48;;;11.88;;
47539;SDS011;33280;52.152;21.052;2023-08-20T19:18:30;14.57;;;11.73;;
47539;SDS011;33280;52.152;21.052;2023-08-20T19:20:58;15.50;;;12.05;;
47539;SDS011;33280;52.152;21.052;2023-08-20T19:23:25;16.90;;;12.68;;
47539;SDS011;33280;52.152;21.052;2023-08-20T19:26:04;14.48;;;11.98;;
47539;SDS011;33280;52.152;21.052;2023-08-20T19:28:31;17.90;;;12.07;;
47539;SDS011;33280;52.152;21.052;2023-08-20T19:31:02;14.82;;;11.98;;
47539;SDS011;33280;52.152;21.052;2023-08-20T19:33:29;15.65;;;11.82;;
47539;SDS011;33280;52.152;21.052;2023-08-20T19:35:59;15.70;;;12.23;;
47539;SDS011;33280;52.152;21.052;2023-08-20T19:38:27;14.65;;;12.05;;
47539;SDS011;33280;52.152;21.052;2023-08-20T19:40:54;17.25;;;11.65;;
47539;SDS011;33280;52.152;21.052;2023-08-20T19:43:22;13.52;;;11.77;;
47539;SDS011;33280;52.152;21.052;2023-08-20T19:45:53;18.52;;;12.82;;
47539;SDS011;33280;52.152;21.052;2023-08-20T19:48:21;16.65;;;12.10;;
47539;SDS011;33280;52.152;21.052;2023-08-20T19:50:48;16.45;;;12.82;;
47539;SDS011;33280;52.152;21.052;2023-08-20T19:53:15;14.82;;;12.10;;
47539;SDS011;33280;52.152;21.052;2023-08-20T19:55:42;15.90;;;13.00;;
47539;SDS011;33280;52.152;21.052;2023-08-20T19:58:09;17.40;;;12.35;;
47539;SDS011;33280;52.152;21.052;2023-08-20T20:00:37;16.92;;;12.65;;
47539;SDS011;33280;52.152;21.052;2023-08-20T20:03:10;17.13;;;13.10;;
47539;SDS011;33280;52.152;21.052;2023-08-20T20:05:38;17.60;;;13.18;;
47539;SDS011;33280;52.152;21.052;2023-08-20T20:08:06;19.10;;;13.32;;
47539;SDS011;33280;52.152;21.052;2023-08-20T20:10:34;17.02;;;12.95;;
47539;SDS011;33280;52.152;21.052;2023-08-20T20:13:04;16.90;;;13.77;;
47539;SDS011;33280;52.152;21.052;2023-08-20T20:15:31;16.83;;;13.65;;
47539;SDS011;33280;52.152;21.052;2023-08-20T20:17:59;17.50;;;14.10;;
47539;SDS011;33280;52.152;21.052;2023-08-20T20:20:35;16.77;;;13.45;;
47539;SDS011;33280;52.152;21.052;2023-08-20T20:23:13;16.88;;;13.50;;
47539;SDS011;33280;52.152;21.052;2023-08-20T20:25:52;17.85;;;13.75;;
47539;SDS011;33280;52.152;21.052;2023-08-20T20:28:28;15.95;;;13.45;;
47539;SDS011;33280;52.152;21.052;2023-08-20T20:31:19;18.20;;;13.50;;
47539;SDS011;33280;52.152;21.052;2023-08-20T20:33:55;16.73;;;13.27;;
47539;SDS011;33280;52.152;21.052;2023-08-20T20:37:23;17.33;;;14.20;;
47539;SDS011;33280;52.152;21.052;2023-08-20T20:54:15;19.95;;;15.13;;
47539;SDS011;33280;52.152;21.052;2023-08-20T21:32:00;20.33;;;15.73;;
47539;SDS011;33280;52.152;21.052;2023-08-20T21:35:05;19.60;;;15.48;;
47539;SDS011;33280;52.152;21.052;2023-08-20T21:39:04;20.05;;;15.35;;
